createdAt,value
2024-02-06T00:00:08.765Z,96128.00
2024-02-06T00:02:55.616Z,96123.00
2024-02-06T00:05:41.007Z,96116.00
2024-02-06T00:08:26.853Z,96114.00
2024-02-06T00:11:14.231Z,96121.00
2024-02-06T00:13:59.876Z,96114.00
2024-02-06T00:16:47.494Z,96108.00
2024-02-06T00:19:33.442Z,96118.00
2024-02-06T00:22:19.450Z,96112.00
2024-02-06T00:25:07.376Z,96108.00
2024-02-06T00:27:53.612Z,96110.00
2024-02-06T00:30:39.664Z,96110.00
2024-02-06T00:33:25.864Z,96108.00
2024-02-06T00:36:11.777Z,96109.00
2024-02-06T00:38:57.673Z,96102.00
2024-02-06T00:41:44.392Z,96107.00
2024-02-06T00:44:30.577Z,96100.00
2024-02-06T00:47:17.310Z,96103.00
2024-02-06T00:50:03.067Z,96105.00
2024-02-06T00:52:49.080Z,96109.00
2024-02-06T00:55:35.204Z,96111.00
2024-02-06T00:58:21.147Z,96107.00
2024-02-06T01:01:06.951Z,96111.00
2024-02-06T01:03:52.796Z,96103.00
2024-02-06T01:06:38.990Z,96101.00
2024-02-06T01:09:25.020Z,96102.00
2024-02-06T01:12:10.546Z,96094.00
2024-02-06T01:14:56.887Z,96098.00
2024-02-06T01:17:42.687Z,96102.00
2024-02-06T01:20:28.144Z,96104.00
2024-02-06T01:23:13.628Z,96086.00
2024-02-06T01:25:59.284Z,96083.00
2024-02-06T01:28:44.713Z,96079.00
2024-02-06T01:31:31.584Z,96085.00
2024-02-06T01:34:17.462Z,96075.00
2024-02-06T01:37:03.622Z,96082.00
2024-02-06T01:39:49.023Z,96066.00
2024-02-06T01:42:34.611Z,96065.00
2024-02-06T01:45:20.655Z,96067.00
2024-02-06T01:48:11.122Z,96063.00
2024-02-06T01:50:57.586Z,96059.00
2024-02-06T01:53:43.432Z,96055.00
2024-02-06T01:56:29.518Z,96046.00
2024-02-06T01:59:15.709Z,96047.00
2024-02-06T02:02:01.913Z,96054.00
2024-02-06T02:04:47.653Z,96052.00
2024-02-06T02:07:35.813Z,96061.00
2024-02-06T02:10:21.784Z,96064.00
2024-02-06T02:13:08.877Z,96066.00
2024-02-06T02:15:54.951Z,96060.00
2024-02-06T02:18:40.379Z,96067.00
2024-02-06T02:21:27.621Z,96078.00
2024-02-06T02:24:13.300Z,96070.00
2024-02-06T02:26:59.192Z,96079.00
2024-02-06T02:29:45.329Z,96066.00
2024-02-06T02:32:31.864Z,96070.00
2024-02-06T02:35:18.475Z,96071.00
2024-02-06T02:38:05.620Z,96063.00
2024-02-06T02:40:51.440Z,96074.00
2024-02-06T02:43:37.398Z,96067.00
2024-02-06T02:46:23.379Z,96061.00
2024-02-06T02:49:09.817Z,96054.00
2024-02-06T02:51:55.750Z,96054.00
2024-02-06T02:54:41.463Z,96045.00
2024-02-06T02:57:26.954Z,96037.00
2024-02-06T03:00:14.097Z,96032.00
2024-02-06T03:02:59.909Z,96048.00
2024-02-06T03:05:45.808Z,96049.00
2024-02-06T03:08:31.602Z,96043.00
2024-02-06T03:11:17.250Z,96033.00
2024-02-06T03:14:02.886Z,96028.00
2024-02-06T03:16:48.949Z,96032.00
2024-02-06T03:19:34.323Z,96021.00
2024-02-06T03:22:27.804Z,96038.00
2024-02-06T03:25:13.917Z,96026.00
2024-02-06T03:27:59.819Z,96037.00
2024-02-06T03:30:46.669Z,96049.00
2024-02-06T03:33:34.920Z,96055.00
2024-02-06T03:36:20.645Z,96058.00
2024-02-06T03:39:07.470Z,96062.00
2024-02-06T03:41:53.961Z,96069.00
2024-02-06T03:44:39.610Z,96069.00
2024-02-06T03:47:25.157Z,96072.00
2024-02-06T03:50:11.056Z,96063.00
2024-02-06T03:52:57.160Z,96060.00
2024-02-06T03:55:42.881Z,96063.00
2024-02-06T03:58:29.038Z,96064.00
2024-02-06T04:01:15.054Z,96061.00
2024-02-06T04:04:01.266Z,96065.00
2024-02-06T04:06:47.302Z,96064.00
2024-02-06T04:09:33.342Z,96080.00
2024-02-06T04:12:18.717Z,96066.00
2024-02-06T04:15:05.924Z,96071.00
2024-02-06T04:17:51.928Z,96074.00
2024-02-06T04:20:37.997Z,96063.00
2024-02-06T04:23:24.207Z,96057.00
2024-02-06T04:26:09.934Z,96057.00
2024-02-06T04:28:55.409Z,96055.00
2024-02-06T04:31:42.131Z,96056.00
2024-02-06T04:34:29.070Z,96061.00
2024-02-06T04:37:14.986Z,96056.00
2024-02-06T04:40:01.062Z,96055.00
2024-02-06T04:42:47.553Z,96054.00
2024-02-06T04:45:34.324Z,96062.00
2024-02-06T04:48:20.348Z,96065.00
2024-02-06T04:51:06.146Z,96066.00
2024-02-06T04:53:52.744Z,96067.00
2024-02-06T04:56:38.579Z,96067.00
2024-02-06T04:59:24.303Z,96072.00
2024-02-06T05:02:10.242Z,96078.00
2024-02-06T05:04:56.376Z,96069.00
2024-02-06T05:07:42.682Z,96072.00
2024-02-06T05:10:29.040Z,96064.00
2024-02-06T05:13:15.646Z,96068.00
2024-02-06T05:16:01.801Z,96072.00
2024-02-06T05:18:47.884Z,96075.00
2024-02-06T05:21:33.555Z,96072.00
2024-02-06T05:24:18.936Z,96075.00
2024-02-06T05:27:05.122Z,96076.00
2024-02-06T05:29:50.620Z,96074.00
2024-02-06T05:32:37.011Z,96072.00
2024-02-06T05:35:22.461Z,96075.00
2024-02-06T05:38:07.907Z,96077.00
2024-02-06T05:40:53.464Z,96066.00
2024-02-06T05:43:40.018Z,96077.00
2024-02-06T05:46:26.130Z,96076.00
2024-02-06T05:49:12.229Z,96076.00
2024-02-06T05:51:58.130Z,96072.00
2024-02-06T05:54:44.272Z,96083.00
2024-02-06T05:57:29.852Z,96078.00
2024-02-06T06:00:16.255Z,96087.00
2024-02-06T06:03:02.090Z,96085.00
2024-02-06T06:05:48.159Z,96083.00
2024-02-06T06:08:35.360Z,96084.00
2024-02-06T06:11:21.692Z,96080.00
2024-02-06T06:14:07.354Z,96089.00
2024-02-06T06:16:53.458Z,96085.00
2024-02-06T06:19:39.813Z,96090.00
2024-02-06T06:22:25.671Z,96084.00
2024-02-06T06:25:11.685Z,96081.00
2024-02-06T06:27:57.558Z,96084.00
2024-02-06T06:30:43.448Z,96090.00
2024-02-06T06:33:29.149Z,96100.00
2024-02-06T06:36:15.100Z,96089.00
2024-02-06T06:39:00.489Z,96099.00
2024-02-06T06:41:48.888Z,96101.00
2024-02-06T06:44:34.746Z,96101.00
2024-02-06T06:47:20.821Z,96110.00
2024-02-06T06:50:07.872Z,96105.00
2024-02-06T06:52:53.821Z,96111.00
2024-02-06T06:55:39.538Z,96108.00
2024-02-06T06:58:25.563Z,96098.00
2024-02-06T07:01:12.259Z,96100.00
2024-02-06T07:03:58.173Z,96098.00
2024-02-06T07:06:44.173Z,96098.00
2024-02-06T07:09:30.048Z,96098.00
2024-02-06T07:12:15.573Z,96101.00
2024-02-06T07:15:01.590Z,96107.00
2024-02-06T07:17:47.237Z,96101.00
2024-02-06T07:20:33.238Z,96109.00
2024-02-06T07:23:19.495Z,96119.00
2024-02-06T07:26:08.846Z,96114.00
2024-02-06T07:28:55.700Z,96120.00
2024-02-06T07:31:41.091Z,96125.00
2024-02-06T07:34:26.990Z,96127.00
2024-02-06T07:37:12.867Z,96137.00
2024-02-06T07:39:58.348Z,96130.00
2024-02-06T07:42:45.951Z,96126.00
2024-02-06T07:45:31.928Z,96131.00
2024-02-06T07:48:17.547Z,96123.00
2024-02-06T07:51:03.903Z,96127.00
2024-02-06T07:53:50.931Z,96123.00
2024-02-06T07:56:38.587Z,96135.00
2024-02-06T07:59:24.642Z,96125.00
2024-02-06T08:02:10.525Z,96134.00
2024-02-06T08:04:57.903Z,96144.00
2024-02-06T08:07:43.889Z,96148.00
2024-02-06T08:10:29.759Z,96147.00
2024-02-06T08:13:15.711Z,96145.00
2024-02-06T08:16:01.425Z,96139.00
2024-02-06T08:18:47.539Z,96135.00
2024-02-06T08:21:33.418Z,96144.00
2024-02-06T08:24:18.984Z,96140.00
2024-02-06T08:27:05.280Z,96145.00
2024-02-06T08:29:50.745Z,96149.00
2024-02-06T08:32:36.856Z,96141.00
2024-02-06T08:35:22.652Z,96151.00
2024-02-06T08:38:08.591Z,96155.00
2024-02-06T08:40:54.493Z,96166.00
2024-02-06T08:43:46.268Z,96157.00
2024-02-06T08:46:38.816Z,96156.00
2024-02-06T08:49:25.577Z,96161.00
2024-02-06T08:52:11.586Z,96150.00
2024-02-06T08:54:57.479Z,96156.00
2024-02-06T08:57:45.957Z,96157.00
2024-02-06T09:00:32.267Z,96162.00
2024-02-06T09:03:18.370Z,96166.00
2024-02-06T09:06:04.520Z,96171.00
2024-02-06T09:08:50.560Z,96174.00
2024-02-06T09:11:36.259Z,96158.00
2024-02-06T09:14:22.519Z,96170.00
2024-02-06T09:17:08.868Z,96166.00
2024-02-06T09:19:54.921Z,96159.00
2024-02-06T09:22:41.348Z,96161.00
2024-02-06T09:25:27.390Z,96159.00
2024-02-06T09:28:13.594Z,96158.00
2024-02-06T09:30:59.514Z,96159.00
2024-02-06T09:33:45.879Z,96157.00
2024-02-06T09:36:32.245Z,96147.00
2024-02-06T09:39:18.075Z,96152.00
2024-02-06T09:42:05.070Z,96154.00
2024-02-06T09:44:50.743Z,96158.00
2024-02-06T09:47:36.333Z,96158.00
2024-02-06T09:50:22.309Z,96151.00
2024-02-06T09:53:10.702Z,96154.00
2024-02-06T09:55:57.340Z,96155.00
2024-02-06T09:58:43.374Z,96171.00
2024-02-06T10:01:29.833Z,96167.00
2024-02-06T10:04:22.802Z,96169.00
2024-02-06T10:07:08.611Z,96168.00
2024-02-06T10:09:55.838Z,96180.00
2024-02-06T10:12:45.788Z,96178.00
2024-02-06T10:15:31.549Z,96184.00
2024-02-06T10:18:17.561Z,96194.00
2024-02-06T10:21:03.541Z,96191.00
2024-02-06T10:23:50.441Z,96181.00
2024-02-06T10:26:36.246Z,96180.00
2024-02-06T10:29:22.228Z,96183.00
2024-02-06T10:32:15.156Z,96176.00
2024-02-06T10:35:05.111Z,96165.00
2024-02-06T10:37:51.003Z,96163.00
2024-02-06T10:40:37.177Z,96162.00
2024-02-06T10:46:23.337Z,96162.00
2024-02-06T10:49:09.608Z,96154.00
2024-02-06T10:52:09.733Z,96146.00
2024-02-06T10:54:55.704Z,96155.00
2024-02-06T10:57:46.692Z,96144.00
2024-02-06T11:00:35.658Z,96141.00
2024-02-06T11:03:27.318Z,96138.00
2024-02-06T11:06:27.665Z,96130.00
2024-02-06T11:09:16.426Z,96131.00
2024-02-06T11:12:02.987Z,96120.00
2024-02-06T11:14:49.793Z,96118.00
2024-02-06T11:17:36.571Z,96125.00
2024-02-06T11:20:29.279Z,96112.00
2024-02-06T11:23:19.622Z,96110.00
2024-02-06T11:26:07.679Z,96103.00
2024-02-06T11:28:54.273Z,96104.00
2024-02-06T11:31:40.953Z,96094.00
2024-02-06T11:34:26.739Z,96098.00
2024-02-06T11:37:30.411Z,96103.00
2024-02-06T11:40:16.415Z,96104.00
2024-02-06T11:43:06.743Z,96102.00
2024-02-06T11:46:01.823Z,96099.00
2024-02-06T11:48:48.985Z,96096.00
2024-02-06T11:51:35.028Z,96080.00
2024-02-06T11:54:21.063Z,96086.00
2024-02-06T11:57:08.877Z,96081.00
2024-02-06T11:59:55.854Z,96076.00
2024-02-06T12:02:43.186Z,96080.00
2024-02-06T12:05:45.233Z,96076.00
2024-02-06T12:08:35.880Z,96074.00
2024-02-06T12:11:22.344Z,96068.00
2024-02-06T12:14:08.437Z,96064.00
2024-02-06T12:16:54.467Z,96060.00
2024-02-06T12:19:41.860Z,96053.00
2024-02-06T12:22:27.802Z,96051.00
2024-02-06T12:25:16.752Z,96052.00
2024-02-06T12:28:07.531Z,96053.00
2024-02-06T12:31:01.989Z,96045.00
2024-02-06T12:33:48.153Z,96053.00
2024-02-06T12:36:35.858Z,96047.00
2024-02-06T12:39:23.241Z,96035.00
2024-02-06T12:42:08.635Z,96036.00
2024-02-06T12:44:55.639Z,96026.00
2024-02-06T12:47:43.324Z,96025.00
2024-02-06T12:50:29.999Z,96026.00
2024-02-06T12:53:26.853Z,96023.00
2024-02-06T12:56:13.948Z,96012.00
2024-02-06T12:59:04.086Z,96010.00
2024-02-06T13:02:07.121Z,96003.00
2024-02-06T13:04:53.223Z,96007.00
2024-02-06T13:07:40.237Z,96002.00
2024-02-06T13:10:27.398Z,95995.00
2024-02-06T13:13:16.939Z,95988.00
2024-02-06T13:16:02.727Z,95989.00
2024-02-06T13:19:01.964Z,95996.00
2024-02-06T13:21:49.344Z,95991.00
2024-02-06T13:24:35.089Z,95994.00
2024-02-06T13:27:23.756Z,95982.00
2024-02-06T13:30:11.598Z,95979.00
2024-02-06T13:32:57.820Z,95977.00
2024-02-06T13:35:43.822Z,95972.00
2024-02-06T13:38:29.665Z,95963.00
2024-02-06T13:41:15.186Z,95958.00
2024-02-06T13:44:00.889Z,95964.00
2024-02-06T13:46:46.935Z,95955.00
2024-02-06T13:49:33.164Z,95961.00
2024-02-06T13:52:18.835Z,95952.00
2024-02-06T13:55:05.256Z,95954.00
2024-02-06T13:57:50.990Z,95953.00
2024-02-06T14:00:36.724Z,95949.00
2024-02-06T14:03:22.198Z,95947.00
2024-02-06T14:06:08.543Z,95946.00
2024-02-06T14:08:55.049Z,95941.00
2024-02-06T14:11:43.738Z,95940.00
2024-02-06T14:14:29.727Z,95937.00
2024-02-06T14:17:15.188Z,95939.00
2024-02-06T14:20:00.774Z,95935.00
2024-02-06T14:22:47.739Z,95934.00
2024-02-06T14:25:33.672Z,95935.00
2024-02-06T14:28:19.597Z,95923.00
2024-02-06T14:31:05.820Z,95919.00
2024-02-06T14:33:51.846Z,95911.00
2024-02-06T14:36:37.774Z,95911.00
2024-02-06T14:39:23.772Z,95914.00
2024-02-06T14:42:10.230Z,95919.00
2024-02-06T14:44:55.774Z,95912.00
2024-02-06T14:47:41.218Z,95910.00
2024-02-06T14:50:26.786Z,95907.00
2024-02-06T14:53:12.454Z,95908.00
2024-02-06T14:55:57.854Z,95911.00
2024-02-06T14:58:43.654Z,95910.00
2024-02-06T15:01:29.770Z,95898.00
2024-02-06T15:04:17.889Z,95908.00
2024-02-06T15:07:04.597Z,95901.00
2024-02-06T15:09:50.580Z,95892.00
2024-02-06T15:12:36.218Z,95897.00
2024-02-06T15:15:21.760Z,95888.00
2024-02-06T15:18:07.664Z,95892.00
2024-02-06T15:20:57.244Z,95894.00
2024-02-06T15:23:46.690Z,95890.00
2024-02-06T15:26:34.784Z,95891.00
2024-02-06T15:29:23.518Z,95886.00
2024-02-06T15:32:09.912Z,95888.00
2024-02-06T15:34:55.604Z,95882.00
2024-02-06T15:37:41.529Z,95872.00
2024-02-06T15:40:27.607Z,95871.00
2024-02-06T15:43:13.268Z,95875.00
2024-02-06T15:46:00.005Z,95877.00
2024-02-06T15:48:47.690Z,95873.00
2024-02-06T15:51:35.245Z,95873.00
2024-02-06T15:54:21.159Z,95873.00
2024-02-06T15:57:06.971Z,95864.00
2024-02-06T15:59:52.863Z,95864.00
2024-02-06T16:02:39.158Z,95865.00
2024-02-06T16:05:25.109Z,95851.00
2024-02-06T16:08:11.575Z,95866.00
2024-02-06T16:10:57.253Z,95857.00
2024-02-06T16:13:43.193Z,95850.00
2024-02-06T16:16:28.810Z,95845.00
2024-02-06T16:19:22.745Z,95839.00
2024-02-06T16:22:16.546Z,95837.00
2024-02-06T16:25:02.137Z,95837.00
2024-02-06T16:27:48.564Z,95846.00
2024-02-06T16:30:34.344Z,95845.00
2024-02-06T16:33:20.790Z,95855.00
2024-02-06T16:36:15.302Z,95855.00
2024-02-06T16:39:00.871Z,95853.00
2024-02-06T16:41:46.832Z,95868.00
2024-02-06T16:44:33.019Z,95867.00
2024-02-06T16:47:19.726Z,95859.00
2024-02-06T16:50:06.700Z,95866.00
2024-02-06T16:52:55.981Z,95870.00
2024-02-06T16:55:44.129Z,95876.00
2024-02-06T16:58:30.115Z,95882.00
2024-02-06T17:01:20.147Z,95880.00
2024-02-06T17:04:07.843Z,95884.00
2024-02-06T17:06:53.784Z,95885.00
2024-02-06T17:09:40.131Z,95883.00
2024-02-06T17:12:28.920Z,95894.00
2024-02-06T17:15:15.314Z,95889.00
2024-02-06T17:18:01.193Z,95882.00
2024-02-06T17:20:47.484Z,95884.00
2024-02-06T17:23:33.274Z,95875.00
2024-02-06T17:26:18.808Z,95871.00
2024-02-06T17:29:04.754Z,95870.00
2024-02-06T17:31:50.355Z,95870.00
2024-02-06T17:34:36.632Z,95873.00
2024-02-06T17:37:22.223Z,95865.00
2024-02-06T17:40:08.785Z,95866.00
2024-02-06T17:42:54.385Z,95866.00
2024-02-06T17:45:40.083Z,95872.00
2024-02-06T17:48:25.546Z,95865.00
2024-02-06T17:51:11.427Z,95864.00
2024-02-06T17:53:57.576Z,95853.00
2024-02-06T17:56:43.274Z,95859.00
2024-02-06T17:59:28.890Z,95849.00
2024-02-06T18:02:14.357Z,95854.00
2024-02-06T18:05:00.353Z,95855.00
2024-02-06T18:07:49.077Z,95855.00
2024-02-06T18:10:35.202Z,95840.00
2024-02-06T18:13:21.190Z,95855.00
2024-02-06T18:16:07.539Z,95845.00
2024-02-06T18:18:53.513Z,95842.00
2024-02-06T18:21:39.352Z,95840.00
2024-02-06T18:24:24.990Z,95829.00
2024-02-06T18:27:10.431Z,95828.00
2024-02-06T18:29:56.463Z,95830.00
2024-02-06T18:32:43.141Z,95838.00
2024-02-06T18:35:29.022Z,95823.00
2024-02-06T18:38:15.032Z,95824.00
2024-02-06T18:41:00.601Z,95828.00
2024-02-06T18:43:47.814Z,95822.00
2024-02-06T18:46:34.776Z,95822.00
2024-02-06T18:49:20.696Z,95822.00
2024-02-06T18:52:06.667Z,95817.00
2024-02-06T18:54:52.657Z,95813.00
2024-02-06T18:57:42.512Z,95803.00
2024-02-06T19:00:28.344Z,95800.00
2024-02-06T19:03:14.488Z,95816.00
2024-02-06T19:06:00.452Z,95814.00
2024-02-06T19:08:46.879Z,95807.00
2024-02-06T19:11:34.912Z,95815.00
2024-02-06T19:14:20.736Z,95817.00
2024-02-06T19:17:06.403Z,95822.00
2024-02-06T19:19:52.392Z,95821.00
2024-02-06T19:22:38.031Z,95808.00
2024-02-06T19:25:23.796Z,95811.00
2024-02-06T19:28:09.768Z,95804.00
2024-02-06T19:30:55.102Z,95804.00
2024-02-06T19:33:44.717Z,95801.00
2024-02-06T19:36:31.427Z,95796.00
2024-02-06T19:39:16.960Z,95800.00
2024-02-06T19:42:04.242Z,95796.00
2024-02-06T19:44:50.297Z,95803.00
2024-02-06T19:47:36.387Z,95798.00
2024-02-06T19:50:22.053Z,95800.00
2024-02-06T19:53:08.665Z,95795.00
2024-02-06T19:55:55.752Z,95801.00
2024-02-06T19:58:43.477Z,95805.00
2024-02-06T20:01:29.580Z,95804.00
2024-02-06T20:04:15.403Z,95810.00
2024-02-06T20:07:03.435Z,95806.00
2024-02-06T20:09:49.465Z,95810.00
2024-02-06T20:12:34.872Z,95817.00
2024-02-06T20:15:20.797Z,95818.00
2024-02-06T20:18:06.198Z,95815.00
2024-02-06T20:20:55.124Z,95818.00
2024-02-06T20:23:41.373Z,95818.00
2024-02-06T20:26:26.958Z,95824.00
2024-02-06T20:29:12.451Z,95811.00
2024-02-06T20:31:58.145Z,95818.00
2024-02-06T20:34:45.174Z,95813.00
2024-02-06T20:37:31.192Z,95818.00
2024-02-06T20:40:17.205Z,95820.00
2024-02-06T20:43:03.626Z,95820.00
2024-02-06T20:45:49.489Z,95820.00
2024-02-06T20:48:35.210Z,95822.00
2024-02-06T20:51:22.398Z,95819.00
2024-02-06T20:54:08.039Z,95817.00
2024-02-06T21:11:26.612Z,95797.00
2024-02-06T21:14:12.311Z,95802.00
2024-02-06T21:16:58.420Z,95792.00
2024-02-06T21:19:44.533Z,95795.00
2024-02-06T21:22:31.527Z,95785.00
2024-02-06T21:25:17.268Z,95790.00
2024-02-06T21:28:03.669Z,95792.00
2024-02-06T21:30:49.553Z,95784.00
2024-02-06T21:33:35.763Z,95789.00
2024-02-06T21:36:21.563Z,95791.00
2024-02-06T21:39:08.320Z,95797.00
2024-02-06T21:41:54.031Z,95798.00
2024-02-06T21:44:39.571Z,95791.00
2024-02-06T21:47:25.175Z,95801.00
2024-02-06T21:50:11.536Z,95799.00
2024-02-06T21:52:57.305Z,95793.00
2024-02-06T21:55:46.433Z,95782.00
2024-02-06T21:58:32.336Z,95788.00
2024-02-06T22:01:18.735Z,95785.00
2024-02-06T22:04:04.499Z,95784.00
2024-02-06T22:06:51.210Z,95783.00
2024-02-06T22:09:37.353Z,95781.00
2024-02-06T22:12:22.858Z,95783.00
2024-02-06T22:15:08.929Z,95775.00
2024-02-06T22:17:55.158Z,95771.00
2024-02-06T22:20:41.436Z,95768.00
2024-02-06T22:23:28.673Z,95748.00
2024-02-06T22:26:14.732Z,95738.00
2024-02-06T22:29:00.989Z,95744.00
2024-02-06T22:31:47.366Z,95737.00
2024-02-06T22:34:35.497Z,95738.00
2024-02-06T22:37:21.743Z,95736.00
2024-02-06T22:40:09.303Z,95742.00
2024-02-06T22:42:54.932Z,95742.00
2024-02-06T22:45:40.397Z,95743.00
2024-02-06T22:48:26.090Z,95738.00
2024-02-06T22:51:11.726Z,95730.00
2024-02-06T22:53:59.512Z,95724.00
2024-02-06T22:56:45.279Z,95729.00
2024-02-06T22:59:33.561Z,95718.00
2024-02-06T23:02:19.351Z,95724.00
2024-02-06T23:05:05.837Z,95724.00
2024-02-06T23:07:52.240Z,95720.00
2024-02-06T23:10:38.375Z,95725.00
2024-02-06T23:13:24.247Z,95714.00
2024-02-06T23:16:11.505Z,95717.00
2024-02-06T23:18:57.802Z,95705.00
2024-02-06T23:21:43.869Z,95717.00
2024-02-06T23:24:29.643Z,95710.00
2024-02-06T23:27:15.546Z,95697.00
2024-02-06T23:30:02.240Z,95710.00
2024-02-06T23:32:47.741Z,95703.00
2024-02-06T23:35:34.481Z,95702.00
2024-02-06T23:38:20.422Z,95711.00
2024-02-06T23:41:06.233Z,95707.00
2024-02-06T23:43:51.933Z,95708.00
2024-02-06T23:46:37.732Z,95698.00
2024-02-06T23:49:23.848Z,95700.00
2024-02-06T23:52:09.967Z,95698.00
2024-02-06T23:54:56.058Z,95702.00
2024-02-06T23:57:42.441Z,95686.00
